LFMT 210230Z AUTO 30004KT CAVOK 16/11 Q1020 NOSIG LFMT 210200Z AUTO 28003KT CAVOK 16/11 Q1020 NOSIG LFMT 210130Z AUTO 32004KT CAVOK 17/11 Q1020 NOSIG LFMT 210100Z AUTO 29007KT CAVOK 17/11 Q1020 NOSIG LFMT 210030Z AUTO 27007KT CAVOK 17/11 Q1020 NOSIG LFMT 210000Z AUTO 29005KT CAVOK 17/11 Q1020 NOSIG LFMT 202330Z AUTO 30005KT CAVOK 17/11 Q1020 NOSIG LFMT 202300Z AUTO 28005KT CAVOK 17/12 Q1020 NOSIG LFMT 202230Z AUTO 28005KT CAVOK 18/11 Q1020 NOSIG LFMT 202200Z AUTO 29008KT CAVOK 18/12 Q1020 NOSIG LFMT 202130Z AUTO 33007KT CAVOK 18/12 Q1020 NOSIG LFMT 202100Z AUTO 34005KT CAVOK 18/12 Q1020 NOSIG LFMT 202030Z AUTO 32005KT CAVOK 19/11 Q1020 NOSIG LFMT 202000Z AUTO 32006KT CAVOK 20/11 Q1020 NOSIG LFMT 201930Z AUTO 32007KT CAVOK 20/11 Q1019 NOSIG LFMT 201900Z AUTO 33009KT CAVOK 21/12 Q1018 NOSIG LFMT 201830Z AUTO 30010KT CAVOK 21/12 Q1018 NOSIG LFMT 201800Z AUTO 30012KT CAVOK 21/11 Q1017 TEMPO 2000 TSRA SCT060CB LFMT 201730Z AUTO 31014KT CAVOK 22/12 Q1017 TEMPO 2000 TSRA SCT060CB LFMT 201700Z AUTO 29013KT 9999 ///CB 23/12 Q1016 BECMG NSC LFMT 201630Z AUTO 28016KT CAVOK 23/12 Q1016 NOSIG LFMT 201600Z AUTO 28018KT CAVOK 24/12 Q1016 NOSIG LFMT 201530Z AUTO 27017KT 240V300 CAVOK 24/13 Q1016 NOSIG LFMT 201500Z AUTO 02004KT CAVOK 24/11 Q1016 BECMG 30015KT LFMT 201430Z AUTO 36006KT 290V040 CAVOK 24/11 Q1016 NOSIG LFMT 201400Z AUTO 33007KT 260V360 CAVOK 25/11 Q1016 NOSIG LFMT 201330Z AUTO 28011KT 240V310 CAVOK 25/12 Q1016 NOSIG LFMT 201300Z AUTO 29010KT 260V330 CAVOK 24/12 Q1016 NOSIG LFMT 201230Z AUTO 29009KT 260V320 CAVOK 23/13 Q1017 NOSIG LFMT 201200Z AUTO 30011KT 270V330 CAVOK 22/13 Q1017 NOSIG LFMT 201130Z AUTO 30012KT 9999 ////// 21/13 Q1017 LFMT 201100Z AUTO 30012KT CAVOK 20/14 Q1017 NOSIG LFMT 201030Z AUTO 29015KT CAVOK 20/14 Q1018 NOSIG LFMT 201000Z AUTO 30014KT 9999 -RA FEW043 SCT054 BKN086 19/14 Q1018 NOSIG LFMT 200930Z AUTO 30017KT 9999 -RA SCT039/// BKN046/// BKN060/// ///TCU 19/13 Q1018 BECMG NSC LFMT 200900Z AUTO 30016KT 9999 -RA FEW034/// SCT070/// BKN094/// ///TCU 19/13 Q1018 BECMG NSC LFMT 200830Z AUTO 29016KT 9999 ///TCU 20/11 Q1017 BECMG NSC LFMT 200800Z AUTO 30015KT 9999 ///CB 21/11 Q1017 BECMG NSC LFMT 200730Z AUTO 29013KT CAVOK 20/11 Q1017 NOSIG LFMT 200700Z AUTO 30011KT 9999 ///TCU 19/11 Q1017 BECMG NSC LFMT 200630Z AUTO 30011KT CAVOK 18/11 Q1017 NOSIG LFMT 200600Z AUTO 27012KT CAVOK 17/11 Q1017 NOSIG LFMT 200530Z AUTO 26009KT CAVOK 16/11 Q1017 NOSIG LFMT 200500Z AUTO 26007KT CAVOK 17/11 Q1017 NOSIG LFMT 200430Z AUTO 01001KT CAVOK 16/11 Q1017 BECMG 28010KT LFMT 200400Z AUTO 30005KT 270V350 CAVOK 17/11 Q1017 NOSIG LFMT 200330Z AUTO 28009KT CAVOK 17/12 Q1016 NOSIG LFMT 200300Z AUTO 26010KT CAVOK 18/12 Q1016 NOSIG LFMT 200230Z AUTO 25009KT CAVOK 17/12 Q1016 NOSIG LFMT 200200Z AUTO 26008KT CAVOK 17/12 Q1017 NOSIG LFMT 200130Z AUTO 27007KT CAVOK 18/12 Q1017 NOSIG LFMT 200100Z AUTO 27012KT CAVOK 18/12 Q1017 NOSIG LFMT 200030Z AUTO 27012KT CAVOK 18/12 Q1017 NOSIG LFMT 200000Z AUTO 26012KT CAVOK 18/12 Q1017 NOSIG LFMT 192330Z AUTO 26009KT CAVOK 18/12 Q1018 NOSIG LFMT 192300Z AUTO 24008KT CAVOK 18/13 Q1018 NOSIG LFMT 192230Z AUTO 23008KT CAVOK 17/12 Q1018 NOSIG LFMT 192200Z AUTO 27009KT 230V290 CAVOK 20/12 Q1017 NOSIG LFMT 192130Z AUTO 25010KT CAVOK 19/12 Q1017 NOSIG LFMT 192100Z AUTO 25011KT CAVOK 19/13 Q1017 NOSIG LFMT 192030Z AUTO 22007KT CAVOK 18/12 Q1017 BECMG 28015KT LFMT 192000Z AUTO 27010KT CAVOK 19/12 Q1017 NOSIG LFMT 191930Z AUTO 27008KT CAVOK 19/12 Q1017 NOSIG LFMT 191900Z AUTO 27011KT 9999 ////// 20/13 Q1017 LFMT 191830Z AUTO 28015KT CAVOK 20/13 Q1016 NOSIG LFMT 191800Z AUTO 27014KT CAVOK 20/13 Q1016 NOSIG LFMT 191730Z AUTO 29018KT CAVOK 22/13 Q1016 NOSIG LFMT 191700Z AUTO 29021KT 9999 SCT046 SCT052 22/13 Q1016 NOSIG LFMT 191630Z AUTO 28019KT 9999 BKN048 23/13 Q1016 NOSIG LFMT 191600Z AUTO 29019KT 260V320 CAVOK 23/13 Q1016 TEMPO 30020G30KT LFMT 191530Z AUTO 29015KT 9999 FEW045 23/12 Q1016 TEMPO 30020G30KT LFMT 191500Z AUTO 29019KT 9999 FEW043 23/13 Q1016 BECMG 30020G30KT

METAR Messwerte

Zurück zur Übersicht

Ort
m ü. NN
Zeit Temperatur Taupunkt Rel.
Luftfeuchte
Luftdruck:
Altimeter
NN
Station
Wind in Beaufort
(Knoten)
Sichtweite
(Meter)
Wolken
(Meter über Grund)
Wettererscheinung
Montpellier
6
Di 21.09. 04:30161172 %1020
1020
1019
WNW 2 (4)>= 10000Nicht signifikant 
Montpellier
6
Di 21.09. 04:00161172 %1020
1020
1019
W 2 (3)>= 10000Nicht signifikant 
Montpellier
6
Di 21.09. 03:30171168 %1020
1020
1019
NW 2 (4)>= 10000Nicht signifikant 
Montpellier
6
Di 21.09. 03:00171168 %1020
1020
1019
WNW 3 (7)>= 10000Nicht signifikant 
Montpellier
6
Di 21.09. 02:30171168 %1020
1020
1019
W 3 (7)>= 10000Nicht signifikant 
Montpellier
6
Di 21.09. 02:00171168 %1020
1020
1019
WNW 2 (5)>= 10000Nicht signifikant 
Montpellier
6
Di 21.09. 01:30171168 %1020
1020
1019
WNW 2 (5)>= 10000Nicht signifikant 
Montpellier
6
Di 21.09. 01:00171272 %1020
1020
1019
W 2 (5)>= 10000Nicht signifikant 
Montpellier
6
Di 21.09. 00:30181164 %1020
1020
1019
W 2 (5)>= 10000Nicht signifikant 
Montpellier
6
Di 21.09. 00:00181268 %1020
1020
1019
WNW 3 (8)>= 10000Nicht signifikant 
Montpellier
6
Mo 20.09. 23:30181268 %1020
1020
1019
NNW 3 (7)>= 10000Nicht signifikant 
Montpellier
6
Mo 20.09. 23:00181268 %1020
1020
1019
NNW 2 (5)>= 10000Nicht signifikant 
Montpellier
6
Mo 20.09. 22:30191160 %1020
1020
1019
NW 2 (5)>= 10000Nicht signifikant 
Montpellier
6
Mo 20.09. 22:00201156 %1020
1020
1019
NW 2 (6)>= 10000Nicht signifikant 
Montpellier
6
Mo 20.09. 21:30201156 %1019
1019
1018
NW 3 (7)>= 10000Nicht signifikant 
Montpellier
6
Mo 20.09. 21:00211256 %1018
1018
1017
NNW 3 (9)>= 10000Nicht signifikant 
Montpellier
6
Mo 20.09. 20:30211256 %1018
1018
1017
WNW 3 (10)>= 10000Nicht signifikant 
Montpellier
6
Mo 20.09. 20:00211153 %1017
1017
1016
WNW 4 (12)>= 10000Nicht signifikant Bald möglich: Gewitter mit Regen
Montpellier
6
Mo 20.09. 19:30221253 %1017
1017
1016
NW 4 (14)>= 10000Nicht signifikant Bald möglich: Gewitter mit Regen
Montpellier
6
Mo 20.09. 19:00231250 %1016
1016
1015
WNW 4 (13)>= 10000  
Montpellier
6
Mo 20.09. 18:30231250 %1016
1016
1015
W 5 (16)>= 10000Nicht signifikant 
Montpellier
6
Mo 20.09. 18:00241247 %1016
1016
1015
W 5 (18)>= 10000Nicht signifikant 
Montpellier
6
Mo 20.09. 17:30241350 %1016
1016
1015
W 5 (17)
WSW - WNW
>= 10000Nicht signifikant 
Montpellier
6
Mo 20.09. 17:00241144 %1016
1016
1015
NNO 2 (4)
Bald Übergang zu:
WNW 4 (15)
>= 10000Nicht signifikant 
Montpellier
6
Mo 20.09. 16:30241144 %1016
1016
1015
N 2 (6)
WNW - NO
>= 10000Nicht signifikant 
Montpellier
6
Mo 20.09. 16:00251141 %1016
1016
1015
NNW 3 (7)
W - N
>= 10000Nicht signifikant 
Montpellier
6
Mo 20.09. 15:30251244 %1016
1016
1015
W 4 (11)
WSW - NW
>= 10000Nicht signifikant 
Montpellier
6
Mo 20.09. 15:00241247 %1016
1016
1015
WNW 3 (10)
W - NNW
>= 10000Nicht signifikant 
Montpellier
6
Mo 20.09. 14:30231353 %1017
1017
1016
WNW 3 (9)
W - NW
>= 10000Nicht signifikant 
Montpellier
6
Mo 20.09. 14:00221357 %1017
1017
1016
WNW 4 (11)
W - NNW
>= 10000Nicht signifikant 
Montpellier
6
Mo 20.09. 13:30211360 %1017
1017
1016
WNW 4 (12)>= 10000  
Montpellier
6
Mo 20.09. 13:00201468 %1017
1017
1016
WNW 4 (12)>= 10000Nicht signifikant 
Montpellier
6
Mo 20.09. 12:30201468 %1018
1018
1017
WNW 4 (15)>= 10000Nicht signifikant 
Montpellier
6
Mo 20.09. 12:00191473 %1018
1018
1017
WNW 4 (14)>= 10000Stark bewölkt (2600)
Wolkig (1600)
Leicht bewölkt (1300)
Regen (schwach)
Montpellier
6
Mo 20.09. 11:30191368 %1018
1018
1017
WNW 5 (17)>= 10000Stark bewölkt (1800)
Stark bewölkt (1400)
Wolkig (1200)
Regen (schwach)
Montpellier
6
Mo 20.09. 11:00191368 %1018
1018
1017
WNW 5 (16)>= 10000Stark bewölkt (2900)
Wolkig (2100)
Leicht bewölkt (1000)
Regen (schwach)
Montpellier
6
Mo 20.09. 10:30201156 %1017
1017
1016
WNW 5 (16)>= 10000  
Montpellier
6
Mo 20.09. 10:00211153 %1017
1017
1016
WNW 4 (15)>= 10000  
Montpellier
6
Mo 20.09. 09:30201156 %1017
1017
1016
WNW 4 (13)>= 10000Nicht signifikant 
Montpellier
6
Mo 20.09. 09:00191160 %1017
1017
1016
WNW 4 (11)>= 10000  
Montpellier
6
Mo 20.09. 08:30181164 %1017
1017
1016
WNW 4 (11)>= 10000Nicht signifikant 
Montpellier
6
Mo 20.09. 08:00171168 %1017
1017
1016
W 4 (12)>= 10000Nicht signifikant 
Montpellier
6
Mo 20.09. 07:30161172 %1017
1017
1016
W 3 (9)>= 10000Nicht signifikant 
Montpellier
6
Mo 20.09. 07:00171168 %1017
1017
1016
W 3 (7)>= 10000Nicht signifikant 
Montpellier
6
Mo 20.09. 06:30161172 %1017
1017
1016
N 1 (1)
Bald Übergang zu:
W 3 (10)
>= 10000Nicht signifikant 
Montpellier
6
Mo 20.09. 06:00171168 %1017
1017
1016
WNW 2 (5)
W - N
>= 10000Nicht signifikant 
Montpellier
6
Mo 20.09. 05:30171272 %1016
1016
1015
W 3 (9)>= 10000Nicht signifikant 
Montpellier
6
Mo 20.09. 05:00181268 %1016
1016
1015
W 3 (10)>= 10000Nicht signifikant 
Montpellier
6
Mo 20.09. 04:30171272 %1016
1016
1015
WSW 3 (9)>= 10000Nicht signifikant 
Montpellier
6
Mo 20.09. 04:00171272 %1017
1017
1016
W 3 (8)>= 10000Nicht signifikant 
Montpellier
6
Mo 20.09. 03:30181268 %1017
1017
1016
W 3 (7)>= 10000Nicht signifikant 
Montpellier
6
Mo 20.09. 03:00181268 %1017
1017
1016
W 4 (12)>= 10000Nicht signifikant 
Montpellier
6
Mo 20.09. 02:30181268 %1017
1017
1016
W 4 (12)>= 10000Nicht signifikant 
Montpellier
6
Mo 20.09. 02:00181268 %1017
1017
1016
W 4 (12)>= 10000Nicht signifikant 
Montpellier
6
Mo 20.09. 01:30181268 %1018
1018
1017
W 3 (9)>= 10000Nicht signifikant 
Montpellier
6
Mo 20.09. 01:00181373 %1018
1018
1017
WSW 3 (8)>= 10000Nicht signifikant 
Montpellier
6
Mo 20.09. 00:30171272 %1018
1018
1017
SW 3 (8)>= 10000Nicht signifikant 
Montpellier
6
Mo 20.09. 00:00201260 %1017
1017
1016
W 3 (9)
SW - WNW
>= 10000Nicht signifikant 
Montpellier
6
So 19.09. 23:30191264 %1017
1017
1016
WSW 3 (10)>= 10000Nicht signifikant 
Montpellier
6
So 19.09. 23:00191368 %1017
1017
1016
WSW 4 (11)>= 10000Nicht signifikant 
Montpellier
6
So 19.09. 22:30181268 %1017
1017
1016
SW 3 (7)
Bald Übergang zu:
W 4 (15)
>= 10000Nicht signifikant 
Montpellier
6
So 19.09. 22:00191264 %1017
1017
1016
W 3 (10)>= 10000Nicht signifikant 
Montpellier
6
So 19.09. 21:30191264 %1017
1017
1016
W 3 (8)>= 10000Nicht signifikant 
Montpellier
6
So 19.09. 21:00201364 %1017
1017
1016
W 4 (11)>= 10000  
Montpellier
6
So 19.09. 20:30201364 %1016
1016
1015
W 4 (15)>= 10000Nicht signifikant 
Montpellier
6
So 19.09. 20:00201364 %1016
1016
1015
W 4 (14)>= 10000Nicht signifikant 
Montpellier
6
So 19.09. 19:30221357 %1016
1016
1015
WNW 5 (18)>= 10000Nicht signifikant 
Montpellier
6
So 19.09. 19:00221357 %1016
1016
1015
WNW 6 (21)>= 10000Wolkig (1600)
Wolkig (1400)
 
Montpellier
6
So 19.09. 18:30231353 %1016
1016
1015
W 5 (19)>= 10000Stark bewölkt (1500) 
Montpellier
6
So 19.09. 18:00231353 %1016
1016
1015
WNW 5 (19)
W - NW
Bald möglich:
WNW 5 (20) - 7 (30)
>= 10000Nicht signifikant 
Montpellier
6
So 19.09. 17:30231250 %1016
1016
1015
WNW 4 (15)
Bald möglich:
WNW 5 (20) - 7 (30)
>= 10000Leicht bewölkt (1400) 
Montpellier
6
So 19.09. 17:00231353 %1016
1016
1015
WNW 5 (19)
Bald Übergang zu:
WNW 5 (20) - 7 (30)
>= 10000Leicht bewölkt (1300) 

Altimeter: Einstellung am Altimeter (Höhenmesser), die Höhe 0 muss auf diesen Luftdruckwert zeigen, damit das Gerät die Stationshöhe richtig anzeigt.

NN: Luftdruck reduziert auf "Normal Null", auf Meereshöhe, dieser von der Temperatur abhängige Wert wird bisweilen unkorrekt einfach als "Luftdruck" bezeichnet. Eigentlich nur eine fiktive Größe, die es erlaubt, Stationen auf unterschiedlichen Höhen miteinander zu vergleichen.

Station: Realer Luftdruck an der Station.